sensor_id;sensor_type;location;lat;lon;timestamp;P1;durP1;ratioP1;P2;durP2;ratioP2
79687;SDS011;69155;49.464;2.108;2023-09-08T00:01:28;7.30;;;5.83;;
79687;SDS011;69155;49.464;2.108;2023-09-08T00:03:53;7.77;;;6.37;;
79687;SDS011;69155;49.464;2.108;2023-09-08T00:06:18;12.57;;;6.27;;
79687;SDS011;69155;49.464;2.108;2023-09-08T00:08:43;7.70;;;6.10;;
79687;SDS011;69155;49.464;2.108;2023-09-08T00:11:08;8.53;;;6.23;;
79687;SDS011;69155;49.464;2.108;2023-09-08T00:13:34;7.57;;;5.83;;
79687;SDS011;69155;49.464;2.108;2023-09-08T00:15:59;10.97;;;6.60;;
79687;SDS011;69155;49.464;2.108;2023-09-08T00:18:24;10.40;;;6.70;;
79687;SDS011;69155;49.464;2.108;2023-09-08T00:20:49;8.20;;;6.63;;
79687;SDS011;69155;49.464;2.108;2023-09-08T00:23:15;14.03;;;6.30;;
79687;SDS011;69155;49.464;2.108;2023-09-08T00:25:40;10.23;;;6.63;;
79687;SDS011;69155;49.464;2.108;2023-09-08T00:28:05;9.73;;;6.27;;
79687;SDS011;69155;49.464;2.108;2023-09-08T00:30:31;10.15;;;6.22;;
79687;SDS011;69155;49.464;2.108;2023-09-08T00:32:57;11.45;;;6.63;;
79687;SDS011;69155;49.464;2.108;2023-09-08T00:35:22;9.43;;;6.07;;
79687;SDS011;69155;49.464;2.108;2023-09-08T00:37:47;12.40;;;5.97;;
79687;SDS011;69155;49.464;2.108;2023-09-08T00:40:12;8.10;;;5.83;;
79687;SDS011;69155;49.464;2.108;2023-09-08T00:42:37;7.77;;;5.70;;
79687;SDS011;69155;49.464;2.108;2023-09-08T00:45:03;9.97;;;6.43;;
79687;SDS011;69155;49.464;2.108;2023-09-08T00:47:29;9.98;;;5.68;;
79687;SDS011;69155;49.464;2.108;2023-09-08T00:49:54;9.57;;;6.10;;
79687;SDS011;69155;49.464;2.108;2023-09-08T00:52:19;11.80;;;6.50;;
79687;SDS011;69155;49.464;2.108;2023-09-08T00:54:44;9.97;;;6.80;;
79687;SDS011;69155;49.464;2.108;2023-09-08T00:57:10;12.80;;;6.50;;
79687;SDS011;69155;49.464;2.108;2023-09-08T00:59:35;11.30;;;5.97;;
79687;SDS011;69155;49.464;2.108;2023-09-08T01:02:01;10.02;;;6.20;;
79687;SDS011;69155;49.464;2.108;2023-09-08T01:04:27;8.23;;;6.18;;
79687;SDS011;69155;49.464;2.108;2023-09-08T01:06:52;7.53;;;5.90;;
79687;SDS011;69155;49.464;2.108;2023-09-08T01:09:17;9.43;;;6.13;;
79687;SDS011;69155;49.464;2.108;2023-09-08T01:11:43;10.98;;;5.93;;
79687;SDS011;69155;49.464;2.108;2023-09-08T01:14:08;8.00;;;6.27;;
79687;SDS011;69155;49.464;2.108;2023-09-08T01:16:33;10.53;;;6.37;;
79687;SDS011;69155;49.464;2.108;2023-09-08T01:18:58;13.33;;;6.17;;
79687;SDS011;69155;49.464;2.108;2023-09-08T01:21:31;8.00;;;6.07;;
79687;SDS011;69155;49.464;2.108;2023-09-08T01:26:36;16.27;;;6.47;;
79687;SDS011;69155;49.464;2.108;2023-09-08T01:29:03;8.38;;;6.63;;
79687;SDS011;69155;49.464;2.108;2023-09-08T01:31:30;13.52;;;6.85;;
79687;SDS011;69155;49.464;2.108;2023-09-08T01:33:55;9.07;;;6.80;;
79687;SDS011;69155;49.464;2.108;2023-09-08T01:36:21;9.30;;;6.38;;
79687;SDS011;69155;49.464;2.108;2023-09-08T01:38:46;9.17;;;6.03;;
79687;SDS011;69155;49.464;2.108;2023-09-08T01:41:11;9.57;;;6.03;;
79687;SDS011;69155;49.464;2.108;2023-09-08T01:43:36;9.63;;;6.20;;
79687;SDS011;69155;49.464;2.108;2023-09-08T01:46:01;9.07;;;6.43;;
79687;SDS011;69155;49.464;2.108;2023-09-08T01:48:27;9.80;;;7.00;;
79687;SDS011;69155;49.464;2.108;2023-09-08T01:50:52;13.53;;;6.33;;
79687;SDS011;69155;49.464;2.108;2023-09-08T01:53:17;10.17;;;6.60;;
79687;SDS011;69155;49.464;2.108;2023-09-08T01:55:42;6.97;;;6.07;;
79687;SDS011;69155;49.464;2.108;2023-09-08T01:58:08;10.77;;;5.73;;
79687;SDS011;69155;49.464;2.108;2023-09-08T02:00:33;12.60;;;6.63;;
79687;SDS011;69155;49.464;2.108;2023-09-08T02:02:58;9.63;;;6.97;;
79687;SDS011;69155;49.464;2.108;2023-09-08T02:05:23;7.60;;;5.90;;
79687;SDS011;69155;49.464;2.108;2023-09-08T02:07:50;10.48;;;6.45;;
79687;SDS011;69155;49.464;2.108;2023-09-08T02:10:15;11.40;;;6.73;;
79687;SDS011;69155;49.464;2.108;2023-09-08T02:12:41;9.83;;;5.93;;
79687;SDS011;69155;49.464;2.108;2023-09-08T02:15:06;10.37;;;6.17;;
79687;SDS011;69155;49.464;2.108;2023-09-08T02:17:31;12.07;;;7.00;;
79687;SDS011;69155;49.464;2.108;2023-09-08T02:19:57;9.27;;;6.57;;
79687;SDS011;69155;49.464;2.108;2023-09-08T02:22:22;8.30;;;6.30;;
79687;SDS011;69155;49.464;2.108;2023-09-08T02:24:47;9.10;;;6.10;;
79687;SDS011;69155;49.464;2.108;2023-09-08T02:27:12;12.40;;;6.27;;
79687;SDS011;69155;49.464;2.108;2023-09-08T02:29:37;13.67;;;6.60;;
79687;SDS011;69155;49.464;2.108;2023-09-08T02:32:03;7.83;;;6.50;;
79687;SDS011;69155;49.464;2.108;2023-09-08T02:34:28;9.07;;;6.45;;
79687;SDS011;69155;49.464;2.108;2023-09-08T02:36:53;8.27;;;6.53;;
79687;SDS011;69155;49.464;2.108;2023-09-08T02:39:18;8.90;;;6.40;;
79687;SDS011;69155;49.464;2.108;2023-09-08T02:41:44;10.97;;;6.47;;
79687;SDS011;69155;49.464;2.108;2023-09-08T02:44:09;14.40;;;6.43;;
79687;SDS011;69155;49.464;2.108;2023-09-08T02:46:34;11.57;;;7.23;;
79687;SDS011;69155;49.464;2.108;2023-09-08T02:48:59;10.80;;;6.70;;
79687;SDS011;69155;49.464;2.108;2023-09-08T02:51:26;14.25;;;6.97;;
79687;SDS011;69155;49.464;2.108;2023-09-08T02:53:51;12.77;;;6.37;;
79687;SDS011;69155;49.464;2.108;2023-09-08T02:56:16;10.83;;;6.77;;
79687;SDS011;69155;49.464;2.108;2023-09-08T02:58:41;12.77;;;6.43;;
79687;SDS011;69155;49.464;2.108;2023-09-08T03:01:13;8.87;;;6.03;;
79687;SDS011;69155;49.464;2.108;2023-09-08T03:03:39;8.18;;;6.30;;
79687;SDS011;69155;49.464;2.108;2023-09-08T03:06:05;18.23;;;7.00;;
79687;SDS011;69155;49.464;2.108;2023-09-08T03:08:30;10.37;;;6.53;;
79687;SDS011;69155;49.464;2.108;2023-09-08T03:10:56;10.37;;;6.10;;
79687;SDS011;69155;49.464;2.108;2023-09-08T03:13:22;9.90;;;6.50;;
79687;SDS011;69155;49.464;2.108;2023-09-08T03:15:47;14.33;;;7.10;;
79687;SDS011;69155;49.464;2.108;2023-09-08T03:18:12;8.17;;;7.20;;
79687;SDS011;69155;49.464;2.108;2023-09-08T03:20:37;9.70;;;6.80;;
79687;SDS011;69155;49.464;2.108;2023-09-08T03:23:03;7.97;;;6.40;;
79687;SDS011;69155;49.464;2.108;2023-09-08T03:25:28;7.47;;;5.83;;
79687;SDS011;69155;49.464;2.108;2023-09-08T03:27:53;7.20;;;6.50;;
79687;SDS011;69155;49.464;2.108;2023-09-08T03:30:18;8.20;;;6.37;;
79687;SDS011;69155;49.464;2.108;2023-09-08T03:32:44;10.27;;;6.63;;
79687;SDS011;69155;49.464;2.108;2023-09-08T03:35:09;8.85;;;6.40;;
79687;SDS011;69155;49.464;2.108;2023-09-08T03:37:35;8.07;;;6.43;;
79687;SDS011;69155;49.464;2.108;2023-09-08T03:40:00;9.40;;;7.47;;
79687;SDS011;69155;49.464;2.108;2023-09-08T03:42:25;11.10;;;6.50;;
79687;SDS011;69155;49.464;2.108;2023-09-08T03:44:50;12.60;;;6.97;;
79687;SDS011;69155;49.464;2.108;2023-09-08T03:47:15;7.93;;;6.07;;
79687;SDS011;69155;49.464;2.108;2023-09-08T03:49:41;13.47;;;6.40;;
79687;SDS011;69155;49.464;2.108;2023-09-08T03:52:06;12.10;;;6.70;;
79687;SDS011;69155;49.464;2.108;2023-09-08T03:54:32;9.43;;;7.03;;
79687;SDS011;69155;49.464;2.108;2023-09-08T03:56:57;9.50;;;6.70;;
79687;SDS011;69155;49.464;2.108;2023-09-08T03:59:22;7.47;;;6.10;;
79687;SDS011;69155;49.464;2.108;2023-09-08T04:01:47;11.07;;;6.73;;
79687;SDS011;69155;49.464;2.108;2023-09-08T04:04:13;8.77;;;6.43;;
79687;SDS011;69155;49.464;2.108;2023-09-08T04:06:38;10.77;;;6.57;;
79687;SDS011;69155;49.464;2.108;2023-09-08T04:09:03;14.20;;;7.13;;
79687;SDS011;69155;49.464;2.108;2023-09-08T04:11:28;8.37;;;6.33;;
79687;SDS011;69155;49.464;2.108;2023-09-08T04:13:53;8.80;;;6.50;;
79687;SDS011;69155;49.464;2.108;2023-09-08T04:16:19;10.60;;;6.60;;
79687;SDS011;69155;49.464;2.108;2023-09-08T04:18:44;17.43;;;6.83;;
79687;SDS011;69155;49.464;2.108;2023-09-08T04:21:09;13.95;;;7.15;;
79687;SDS011;69155;49.464;2.108;2023-09-08T04:23:34;8.13;;;6.87;;
79687;SDS011;69155;49.464;2.108;2023-09-08T04:26:00;11.90;;;7.00;;
79687;SDS011;69155;49.464;2.108;2023-09-08T04:28:25;14.05;;;6.60;;
79687;SDS011;69155;49.464;2.108;2023-09-08T04:30:51;7.97;;;6.63;;
79687;SDS011;69155;49.464;2.108;2023-09-08T04:33:16;11.27;;;6.63;;
79687;SDS011;69155;49.464;2.108;2023-09-08T04:35:41;8.80;;;7.50;;
79687;SDS011;69155;49.464;2.108;2023-09-08T04:38:06;10.47;;;6.70;;
79687;SDS011;69155;49.464;2.108;2023-09-08T04:40:32;9.73;;;6.85;;
79687;SDS011;69155;49.464;2.108;2023-09-08T04:42:57;13.77;;;6.57;;
79687;SDS011;69155;49.464;2.108;2023-09-08T04:45:22;9.50;;;6.03;;
79687;SDS011;69155;49.464;2.108;2023-09-08T04:47:47;12.13;;;7.10;;
79687;SDS011;69155;49.464;2.108;2023-09-08T04:50:13;11.63;;;7.07;;
79687;SDS011;69155;49.464;2.108;2023-09-08T04:52:38;8.67;;;5.87;;
79687;SDS011;69155;49.464;2.108;2023-09-08T04:55:03;11.70;;;7.10;;
79687;SDS011;69155;49.464;2.108;2023-09-08T04:57:28;12.68;;;6.70;;
79687;SDS011;69155;49.464;2.108;2023-09-08T04:59:54;8.47;;;6.33;;
79687;SDS011;69155;49.464;2.108;2023-09-08T05:02:19;8.27;;;6.53;;
79687;SDS011;69155;49.464;2.108;2023-09-08T05:04:44;12.77;;;6.43;;
79687;SDS011;69155;49.464;2.108;2023-09-08T05:07:09;10.53;;;6.60;;
79687;SDS011;69155;49.464;2.108;2023-09-08T05:09:35;12.47;;;6.70;;
79687;SDS011;69155;49.464;2.108;2023-09-08T05:12:00;11.47;;;7.10;;
79687;SDS011;69155;49.464;2.108;2023-09-08T05:14:26;16.30;;;7.35;;
79687;SDS011;69155;49.464;2.108;2023-09-08T05:16:51;10.33;;;6.97;;
79687;SDS011;69155;49.464;2.108;2023-09-08T05:19:20;11.50;;;7.10;;
79687;SDS011;69155;49.464;2.108;2023-09-08T05:21:45;12.17;;;7.20;;
79687;SDS011;69155;49.464;2.108;2023-09-08T05:24:11;20.25;;;8.10;;
79687;SDS011;69155;49.464;2.108;2023-09-08T05:26:36;11.10;;;8.00;;
79687;SDS011;69155;49.464;2.108;2023-09-08T05:29:02;12.02;;;9.40;;
79687;SDS011;69155;49.464;2.108;2023-09-08T05:31:27;13.40;;;9.03;;
